sensor_id;sensor_type;location;lat;lon;timestamp;P1;durP1;ratioP1;P2;durP2;ratioP2
11303;SDS011;5707;49.588;12.148;2023-09-18T00:02:18;2.40;;;2.20;;
11303;SDS011;5707;49.588;12.148;2023-09-18T00:04:44;1.98;;;1.88;;
11303;SDS011;5707;49.588;12.148;2023-09-18T00:07:09;2.38;;;2.17;;
11303;SDS011;5707;49.588;12.148;2023-09-18T00:09:35;2.08;;;1.92;;
11303;SDS011;5707;49.588;12.148;2023-09-18T00:12:01;2.47;;;2.28;;
11303;SDS011;5707;49.588;12.148;2023-09-18T00:14:27;2.20;;;2.00;;
11303;SDS011;5707;49.588;12.148;2023-09-18T00:16:52;1.90;;;1.80;;
11303;SDS011;5707;49.588;12.148;2023-09-18T00:19:18;2.13;;;2.03;;
11303;SDS011;5707;49.588;12.148;2023-09-18T00:21:43;2.30;;;2.00;;
11303;SDS011;5707;49.588;12.148;2023-09-18T00:24:09;2.22;;;2.03;;
11303;SDS011;5707;49.588;12.148;2023-09-18T00:26:36;2.25;;;2.15;;
11303;SDS011;5707;49.588;12.148;2023-09-18T00:29:02;2.47;;;1.98;;
11303;SDS011;5707;49.588;12.148;2023-09-18T00:31:27;2.35;;;2.15;;
11303;SDS011;5707;49.588;12.148;2023-09-18T00:33:53;1.90;;;1.80;;
11303;SDS011;5707;49.588;12.148;2023-09-18T00:36:18;2.08;;;1.90;;
11303;SDS011;5707;49.588;12.148;2023-09-18T00:38:44;2.00;;;1.90;;
11303;SDS011;5707;49.588;12.148;2023-09-18T00:41:11;2.47;;;2.28;;
11303;SDS011;5707;49.588;12.148;2023-09-18T00:43:37;2.10;;;2.00;;
11303;SDS011;5707;49.588;12.148;2023-09-18T00:46:02;2.72;;;1.90;;
11303;SDS011;5707;49.588;12.148;2023-09-18T00:48:28;2.63;;;1.98;;
11303;SDS011;5707;49.588;12.148;2023-09-18T00:50:54;1.95;;;1.85;;
11303;SDS011;5707;49.588;12.148;2023-09-18T00:53:21;2.00;;;1.90;;
11303;SDS011;5707;49.588;12.148;2023-09-18T00:55:50;1.70;;;1.60;;
11303;SDS011;5707;49.588;12.148;2023-09-18T00:58:18;1.77;;;1.67;;
11303;SDS011;5707;49.588;12.148;2023-09-18T01:00:44;2.25;;;1.70;;
11303;SDS011;5707;49.588;12.148;2023-09-18T01:03:10;2.17;;;1.98;;
11303;SDS011;5707;49.588;12.148;2023-09-18T01:05:36;1.90;;;1.80;;
11303;SDS011;5707;49.588;12.148;2023-09-18T01:08:01;4.70;;;2.00;;
11303;SDS011;5707;49.588;12.148;2023-09-18T01:10:29;1.90;;;1.80;;
11303;SDS011;5707;49.588;12.148;2023-09-18T01:13:04;1.73;;;1.63;;
11303;SDS011;5707;49.588;12.148;2023-09-18T01:15:47;2.10;;;2.00;;
11303;SDS011;5707;49.588;12.148;2023-09-18T01:18:17;2.35;;;1.50;;
11303;SDS011;5707;49.588;12.148;2023-09-18T01:20:43;1.83;;;1.73;;
11303;SDS011;5707;49.588;12.148;2023-09-18T01:23:10;1.92;;;1.80;;
11303;SDS011;5707;49.588;12.148;2023-09-18T01:25:36;2.55;;;1.90;;
11303;SDS011;5707;49.588;12.148;2023-09-18T01:28:02;1.80;;;1.70;;
11303;SDS011;5707;49.588;12.148;2023-09-18T01:30:28;2.13;;;2.00;;
11303;SDS011;5707;49.588;12.148;2023-09-18T01:32:54;2.25;;;1.80;;
11303;SDS011;5707;49.588;12.148;2023-09-18T01:35:22;1.88;;;1.60;;
11303;SDS011;5707;49.588;12.148;2023-09-18T01:37:54;1.48;;;1.38;;
11303;SDS011;5707;49.588;12.148;2023-09-18T01:40:24;1.83;;;1.73;;
11303;SDS011;5707;49.588;12.148;2023-09-18T01:42:51;2.17;;;1.40;;
11303;SDS011;5707;49.588;12.148;2023-09-18T01:45:17;2.10;;;2.00;;
11303;SDS011;5707;49.588;12.148;2023-09-18T01:47:43;1.90;;;1.80;;
11303;SDS011;5707;49.588;12.148;2023-09-18T01:50:09;2.10;;;1.70;;
11303;SDS011;5707;49.588;12.148;2023-09-18T01:52:35;1.73;;;1.63;;
11303;SDS011;5707;49.588;12.148;2023-09-18T01:55:01;1.70;;;1.60;;
11303;SDS011;5707;49.588;12.148;2023-09-18T01:57:29;1.75;;;1.65;;
11303;SDS011;5707;49.588;12.148;2023-09-18T01:59:54;1.80;;;1.70;;
11303;SDS011;5707;49.588;12.148;2023-09-18T02:02:20;2.08;;;1.98;;
11303;SDS011;5707;49.588;12.148;2023-09-18T02:04:46;3.80;;;3.60;;
11303;SDS011;5707;49.588;12.148;2023-09-18T02:07:11;6.80;;;6.32;;
11303;SDS011;5707;49.588;12.148;2023-09-18T02:09:37;8.02;;;7.43;;
11303;SDS011;5707;49.588;12.148;2023-09-18T02:12:02;5.20;;;4.80;;
11303;SDS011;5707;49.588;12.148;2023-09-18T02:14:29;4.82;;;4.53;;
11303;SDS011;5707;49.588;12.148;2023-09-18T02:16:55;4.70;;;4.30;;
11303;SDS011;5707;49.588;12.148;2023-09-18T02:19:21;8.00;;;7.45;;
11303;SDS011;5707;49.588;12.148;2023-09-18T02:21:46;7.45;;;6.85;;
11303;SDS011;5707;49.588;12.148;2023-09-18T02:24:12;8.05;;;7.28;;
11303;SDS011;5707;49.588;12.148;2023-09-18T02:26:38;8.65;;;7.95;;
11303;SDS011;5707;49.588;12.148;2023-09-18T02:29:05;3.38;;;3.17;;
11303;SDS011;5707;49.588;12.148;2023-09-18T02:31:35;4.90;;;4.50;;
11303;SDS011;5707;49.588;12.148;2023-09-18T02:34:00;3.53;;;3.08;;
11303;SDS011;5707;49.588;12.148;2023-09-18T02:36:26;2.80;;;2.60;;
11303;SDS011;5707;49.588;12.148;2023-09-18T02:38:51;2.33;;;2.22;;
11303;SDS011;5707;49.588;12.148;2023-09-18T02:41:17;2.40;;;2.30;;
11303;SDS011;5707;49.588;12.148;2023-09-18T02:43:42;3.05;;;2.13;;
11303;SDS011;5707;49.588;12.148;2023-09-18T02:46:08;2.60;;;2.40;;
11303;SDS011;5707;49.588;12.148;2023-09-18T02:48:34;2.78;;;1.90;;
11303;SDS011;5707;49.588;12.148;2023-09-18T02:51:00;2.20;;;1.85;;
11303;SDS011;5707;49.588;12.148;2023-09-18T02:53:26;2.15;;;1.98;;
11303;SDS011;5707;49.588;12.148;2023-09-18T02:55:53;2.13;;;1.67;;
11303;SDS011;5707;49.588;12.148;2023-09-18T02:58:20;1.95;;;1.70;;
11303;SDS011;5707;49.588;12.148;2023-09-18T03:00:47;2.83;;;1.98;;
11303;SDS011;5707;49.588;12.148;2023-09-18T03:03:13;5.13;;;1.65;;
11303;SDS011;5707;49.588;12.148;2023-09-18T03:05:40;4.07;;;2.20;;
11303;SDS011;5707;49.588;12.148;2023-09-18T03:08:06;3.90;;;1.52;;
11303;SDS011;5707;49.588;12.148;2023-09-18T03:10:35;1.85;;;1.70;;
11303;SDS011;5707;49.588;12.148;2023-09-18T03:13:04;4.50;;;1.90;;
11303;SDS011;5707;49.588;12.148;2023-09-18T03:15:30;5.10;;;1.80;;
11303;SDS011;5707;49.588;12.148;2023-09-18T03:17:57;4.22;;;1.90;;
11303;SDS011;5707;49.588;12.148;2023-09-18T03:20:24;7.13;;;1.90;;
11303;SDS011;5707;49.588;12.148;2023-09-18T03:22:59;5.10;;;1.70;;
11303;SDS011;5707;49.588;12.148;2023-09-18T03:25:26;4.47;;;1.80;;
11303;SDS011;5707;49.588;12.148;2023-09-18T03:27:53;2.20;;;1.55;;
11303;SDS011;5707;49.588;12.148;2023-09-18T03:30:19;2.50;;;1.50;;
11303;SDS011;5707;49.588;12.148;2023-09-18T03:32:46;2.03;;;1.45;;
11303;SDS011;5707;49.588;12.148;2023-09-18T03:35:13;5.05;;;1.67;;
11303;SDS011;5707;49.588;12.148;2023-09-18T03:37:48;2.45;;;1.60;;
11303;SDS011;5707;49.588;12.148;2023-09-18T03:40:18;2.03;;;1.67;;
11303;SDS011;5707;49.588;12.148;2023-09-18T03:42:44;2.08;;;1.60;;
11303;SDS011;5707;49.588;12.148;2023-09-18T03:45:10;4.93;;;1.73;;
11303;SDS011;5707;49.588;12.148;2023-09-18T03:47:36;4.95;;;2.10;;
11303;SDS011;5707;49.588;12.148;2023-09-18T03:50:04;3.13;;;2.13;;
11303;SDS011;5707;49.588;12.148;2023-09-18T03:52:31;1.85;;;1.50;;
11303;SDS011;5707;49.588;12.148;2023-09-18T03:54:56;7.13;;;1.55;;
11303;SDS011;5707;49.588;12.148;2023-09-18T03:57:22;2.00;;;1.55;;
11303;SDS011;5707;49.588;12.148;2023-09-18T03:59:47;3.85;;;1.77;;
11303;SDS011;5707;49.588;12.148;2023-09-18T04:02:13;2.90;;;1.90;;
11303;SDS011;5707;49.588;12.148;2023-09-18T04:04:38;4.30;;;2.28;;
11303;SDS011;5707;49.588;12.148;2023-09-18T04:07:07;3.30;;;1.58;;
11303;SDS011;5707;49.588;12.148;2023-09-18T04:09:33;2.40;;;1.63;;
11303;SDS011;5707;49.588;12.148;2023-09-18T04:12:02;3.63;;;2.38;;
11303;SDS011;5707;49.588;12.148;2023-09-18T04:14:30;4.35;;;2.30;;
11303;SDS011;5707;49.588;12.148;2023-09-18T04:16:56;5.68;;;1.77;;
11303;SDS011;5707;49.588;12.148;2023-09-18T04:19:22;1.73;;;1.63;;
11303;SDS011;5707;49.588;12.148;2023-09-18T04:21:47;2.22;;;1.65;;
11303;SDS011;5707;49.588;12.148;2023-09-18T04:24:13;1.80;;;1.70;;
11303;SDS011;5707;49.588;12.148;2023-09-18T04:26:39;2.72;;;1.73;;
11303;SDS011;5707;49.588;12.148;2023-09-18T04:29:04;2.10;;;1.90;;
11303;SDS011;5707;49.588;12.148;2023-09-18T04:31:31;2.17;;;1.70;;
11303;SDS011;5707;49.588;12.148;2023-09-18T04:33:56;2.78;;;2.00;;
11303;SDS011;5707;49.588;12.148;2023-09-18T04:36:22;3.85;;;2.10;;
11303;SDS011;5707;49.588;12.148;2023-09-18T04:38:48;4.15;;;2.22;;
11303;SDS011;5707;49.588;12.148;2023-09-18T04:41:14;2.83;;;1.90;;
11303;SDS011;5707;49.588;12.148;2023-09-18T04:43:40;2.85;;;2.10;;
11303;SDS011;5707;49.588;12.148;2023-09-18T04:46:07;1.60;;;1.50;;
11303;SDS011;5707;49.588;12.148;2023-09-18T04:48:33;3.55;;;1.75;;
11303;SDS011;5707;49.588;12.148;2023-09-18T04:50:59;2.08;;;1.70;;
11303;SDS011;5707;49.588;12.148;2023-09-18T04:53:26;1.85;;;1.75;;
11303;SDS011;5707;49.588;12.148;2023-09-18T04:55:52;1.90;;;1.80;;
11303;SDS011;5707;49.588;12.148;2023-09-18T04:58:19;2.10;;;2.00;;
11303;SDS011;5707;49.588;12.148;2023-09-18T05:00:44;1.75;;;1.60;;
11303;SDS011;5707;49.588;12.148;2023-09-18T05:03:11;1.98;;;1.88;;
11303;SDS011;5707;49.588;12.148;2023-09-18T05:05:38;2.90;;;2.00;;
11303;SDS011;5707;49.588;12.148;2023-09-18T05:08:05;1.90;;;1.80;;
11303;SDS011;5707;49.588;12.148;2023-09-18T05:10:34;1.88;;;1.75;;
11303;SDS011;5707;49.588;12.148;2023-09-18T05:13:00;1.60;;;1.50;;
11303;SDS011;5707;49.588;12.148;2023-09-18T05:15:25;2.20;;;2.05;;
11303;SDS011;5707;49.588;12.148;2023-09-18T05:17:54;1.95;;;1.85;;
11303;SDS011;5707;49.588;12.148;2023-09-18T05:20:22;5.18;;;1.73;;
11303;SDS011;5707;49.588;12.148;2023-09-18T05:22:52;1.63;;;1.52;;
11303;SDS011;5707;49.588;12.148;2023-09-18T05:25:18;3.17;;;1.73;;
11303;SDS011;5707;49.588;12.148;2023-09-18T05:27:46;2.95;;;1.70;;
11303;SDS011;5707;49.588;12.148;2023-09-18T05:30:18;1.90;;;1.80;;
11303;SDS011;5707;49.588;12.148;2023-09-18T05:32:46;4.60;;;1.88;;
11303;SDS011;5707;49.588;12.148;2023-09-18T05:35:13;5.22;;;2.17;;
11303;SDS011;5707;49.588;12.148;2023-09-18T05:37:39;2.17;;;2.08;;
11303;SDS011;5707;49.588;12.148;2023-09-18T05:40:06;1.73;;;1.63;;
11303;SDS011;5707;49.588;12.148;2023-09-18T05:42:40;1.90;;;1.80;;
11303;SDS011;5707;49.588;12.148;2023-09-18T05:45:08;7.57;;;3.58;;
11303;SDS011;5707;49.588;12.148;2023-09-18T05:47:34;5.82;;;2.80;;
11303;SDS011;5707;49.588;12.148;2023-09-18T05:50:01;2.17;;;1.98;;
11303;SDS011;5707;49.588;12.148;2023-09-18T05:52:28;2.58;;;2.15;;
11303;SDS011;5707;49.588;12.148;2023-09-18T05:54:54;2.42;;;2.33;;
11303;SDS011;5707;49.588;12.148;2023-09-18T05:57:20;2.80;;;2.70;;
11303;SDS011;5707;49.588;12.148;2023-09-18T05:59:45;4.75;;;2.63;;
11303;SDS011;5707;49.588;12.148;2023-09-18T06:02:11;2.20;;;2.10;;
11303;SDS011;5707;49.588;12.148;2023-09-18T06:04:37;4.20;;;2.22;;
11303;SDS011;5707;49.588;12.148;2023-09-18T06:07:05;2.30;;;2.20;;
11303;SDS011;5707;49.588;12.148;2023-09-18T06:09:31;2.45;;;2.35;;
11303;SDS011;5707;49.588;12.148;2023-09-18T06:11:57;2.80;;;2.28;;
11303;SDS011;5707;49.588;12.148;2023-09-18T06:14:24;2.53;;;2.33;;
11303;SDS011;5707;49.588;12.148;2023-09-18T06:16:50;2.35;;;2.25;;
11303;SDS011;5707;49.588;12.148;2023-09-18T06:19:16;3.17;;;2.97;;
11303;SDS011;5707;49.588;12.148;2023-09-18T06:21:44;2.60;;;2.47;;
11303;SDS011;5707;49.588;12.148;2023-09-18T06:24:10;2.13;;;2.03;;
11303;SDS011;5707;49.588;12.148;2023-09-18T06:26:35;2.55;;;2.45;;
11303;SDS011;5707;49.588;12.148;2023-09-18T06:29:01;2.30;;;2.20;;
11303;SDS011;5707;49.588;12.148;2023-09-18T06:31:27;2.58;;;2.47;;
11303;SDS011;5707;49.588;12.148;2023-09-18T06:33:53;2.40;;;2.30;;
11303;SDS011;5707;49.588;12.148;2023-09-18T06:36:19;2.67;;;2.47;;
11303;SDS011;5707;49.588;12.148;2023-09-18T06:38:44;3.37;;;3.07;;
11303;SDS011;5707;49.588;12.148;2023-09-18T06:41:10;2.42;;;2.30;;
11303;SDS011;5707;49.588;12.148;2023-09-18T06:43:35;2.63;;;2.53;;
11303;SDS011;5707;49.588;12.148;2023-09-18T06:46:01;2.75;;;2.50;;
11303;SDS011;5707;49.588;12.148;2023-09-18T06:48:26;2.97;;;2.78;;
11303;SDS011;5707;49.588;12.148;2023-09-18T06:50:57;3.15;;;2.85;;
11303;SDS011;5707;49.588;12.148;2023-09-18T06:53:23;2.97;;;2.78;;
11303;SDS011;5707;49.588;12.148;2023-09-18T06:55:48;2.75;;;2.55;;
11303;SDS011;5707;49.588;12.148;2023-09-18T06:58:14;5.07;;;2.92;;
11303;SDS011;5707;49.588;12.148;2023-09-18T07:00:39;3.45;;;2.53;;
11303;SDS011;5707;49.588;12.148;2023-09-18T07:03:06;2.53;;;2.33;;
11303;SDS011;5707;49.588;12.148;2023-09-18T07:05:34;2.70;;;2.60;;
11303;SDS011;5707;49.588;12.148;2023-09-18T07:08:00;3.30;;;2.13;;
11303;SDS011;5707;49.588;12.148;2023-09-18T07:10:25;2.78;;;2.58;;
11303;SDS011;5707;49.588;12.148;2023-09-18T07:12:51;2.95;;;2.75;;
11303;SDS011;5707;49.588;12.148;2023-09-18T07:15:17;4.43;;;2.92;;
11303;SDS011;5707;49.588;12.148;2023-09-18T07:17:43;3.38;;;2.65;;
11303;SDS011;5707;49.588;12.148;2023-09-18T07:20:08;2.35;;;2.25;;
11303;SDS011;5707;49.588;12.148;2023-09-18T07:22:38;2.40;;;2.30;;
11303;SDS011;5707;49.588;12.148;2023-09-18T07:25:06;2.50;;;2.35;;
11303;SDS011;5707;49.588;12.148;2023-09-18T07:27:32;3.20;;;3.00;;
11303;SDS011;5707;49.588;12.148;2023-09-18T07:29:58;3.33;;;2.40;;
11303;SDS011;5707;49.588;12.148;2023-09-18T07:32:24;2.80;;;2.60;;
11303;SDS011;5707;49.588;12.148;2023-09-18T07:34:52;2.85;;;2.30;;
11303;SDS011;5707;49.588;12.148;2023-09-18T07:37:17;2.72;;;2.53;;
11303;SDS011;5707;49.588;12.148;2023-09-18T07:39:46;2.42;;;2.22;;
11303;SDS011;5707;49.588;12.148;2023-09-18T07:42:11;2.88;;;2.30;;
11303;SDS011;5707;49.588;12.148;2023-09-18T07:44:37;2.45;;;2.35;;
11303;SDS011;5707;49.588;12.148;2023-09-18T07:47:03;2.90;;;2.70;;
11303;SDS011;5707;49.588;12.148;2023-09-18T07:49:28;3.05;;;2.60;;
11303;SDS011;5707;49.588;12.148;2023-09-18T07:51:54;3.28;;;2.42;;
11303;SDS011;5707;49.588;12.148;2023-09-18T07:54:20;2.80;;;2.60;;
11303;SDS011;5707;49.588;12.148;2023-09-18T07:56:46;2.63;;;2.40;;
11303;SDS011;5707;49.588;12.148;2023-09-18T07:59:11;3.10;;;2.33;;
11303;SDS011;5707;49.588;12.148;2023-09-18T08:01:39;2.92;;;2.65;;
11303;SDS011;5707;49.588;12.148;2023-09-18T08:04:05;2.75;;;2.53;;
11303;SDS011;5707;49.588;12.148;2023-09-18T08:06:31;9.38;;;3.13;;
11303;SDS011;5707;49.588;12.148;2023-09-18T08:08:56;4.22;;;3.42;;
11303;SDS011;5707;49.588;12.148;2023-09-18T08:11:22;3.33;;;3.03;;
11303;SDS011;5707;49.588;12.148;2023-09-18T08:13:47;2.20;;;2.05;;
11303;SDS011;5707;49.588;12.148;2023-09-18T08:16:13;2.75;;;2.28;;
11303;SDS011;5707;49.588;12.148;2023-09-18T08:18:39;3.20;;;1.95;;
11303;SDS011;5707;49.588;12.148;2023-09-18T08:21:06;2.50;;;2.10;;
11303;SDS011;5707;49.588;12.148;2023-09-18T08:23:34;2.47;;;2.28;;
11303;SDS011;5707;49.588;12.148;2023-09-18T08:26:00;2.95;;;1.98;;
11303;SDS011;5707;49.588;12.148;2023-09-18T08:28:26;2.20;;;2.00;;
11303;SDS011;5707;49.588;12.148;2023-09-18T08:30:52;3.45;;;2.10;;
11303;SDS011;5707;49.588;12.148;2023-09-18T08:33:20;2.97;;;2.30;;
11303;SDS011;5707;49.588;12.148;2023-09-18T08:35:45;2.45;;;2.33;;
11303;SDS011;5707;49.588;12.148;2023-09-18T08:38:11;2.38;;;2.17;;
11303;SDS011;5707;49.588;12.148;2023-09-18T08:40:40;3.03;;;2.28;;
11303;SDS011;5707;49.588;12.148;2023-09-18T08:43:07;4.03;;;2.58;;
11303;SDS011;5707;49.588;12.148;2023-09-18T08:45:40;2.85;;;2.58;;
11303;SDS011;5707;49.588;12.148;2023-09-18T08:48:16;3.15;;;2.47;;
11303;SDS011;5707;49.588;12.148;2023-09-18T08:50:42;3.45;;;2.13;;
11303;SDS011;5707;49.588;12.148;2023-09-18T08:53:08;3.83;;;2.20;;
11303;SDS011;5707;49.588;12.148;2023-09-18T08:55:34;2.72;;;2.53;;
11303;SDS011;5707;49.588;12.148;2023-09-18T08:57:59;2.78;;;2.45;;
11303;SDS011;5707;49.588;12.148;2023-09-18T09:00:26;2.28;;;2.08;;
11303;SDS011;5707;49.588;12.148;2023-09-18T09:02:52;2.80;;;2.50;;
11303;SDS011;5707;49.588;12.148;2023-09-18T09:05:19;4.65;;;2.63;;
11303;SDS011;5707;49.588;12.148;2023-09-18T09:07:48;5.28;;;2.90;;
11303;SDS011;5707;49.588;12.148;2023-09-18T09:10:14;10.52;;;4.75;;
11303;SDS011;5707;49.588;12.148;2023-09-18T09:12:56;5.38;;;3.28;;
11303;SDS011;5707;49.588;12.148;2023-09-18T09:15:23;8.60;;;4.72;;
11303;SDS011;5707;49.588;12.148;2023-09-18T09:17:51;2.75;;;2.50;;
11303;SDS011;5707;49.588;12.148;2023-09-18T09:20:26;9.93;;;3.33;;
11303;SDS011;5707;49.588;12.148;2023-09-18T09:22:51;2.80;;;2.58;;
11303;SDS011;5707;49.588;12.148;2023-09-18T09:27:53;2.70;;;2.40;;
11303;SDS011;5707;49.588;12.148;2023-09-18T09:30:21;5.28;;;3.22;;
11303;SDS011;5707;49.588;12.148;2023-09-18T09:32:51;3.17;;;2.88;;
11303;SDS011;5707;49.588;12.148;2023-09-18T09:35:27;2.88;;;2.60;;
11303;SDS011;5707;49.588;12.148;2023-09-18T09:38:01;6.00;;;2.92;;
11303;SDS011;5707;49.588;12.148;2023-09-18T09:40:34;2.78;;;2.53;;
11303;SDS011;5707;49.588;12.148;2023-09-18T09:43:00;3.58;;;2.95;;
11303;SDS011;5707;49.588;12.148;2023-09-18T09:45:28;3.53;;;2.60;;
11303;SDS011;5707;49.588;12.148;2023-09-18T09:47:55;8.18;;;2.80;;
11303;SDS011;5707;49.588;12.148;2023-09-18T09:50:21;4.80;;;2.88;;
11303;SDS011;5707;49.588;12.148;2023-09-18T09:52:51;2.88;;;2.63;;
11303;SDS011;5707;49.588;12.148;2023-09-18T09:57:55;4.45;;;2.58;;
11303;SDS011;5707;49.588;12.148;2023-09-18T10:00:31;2.92;;;2.65;;
11303;SDS011;5707;49.588;12.148;2023-09-18T10:03:07;3.10;;;2.30;;
11303;SDS011;5707;49.588;12.148;2023-09-18T10:05:35;3.40;;;2.30;;
11303;SDS011;5707;49.588;12.148;2023-09-18T10:08:07;5.00;;;2.78;;
11303;SDS011;5707;49.588;12.148;2023-09-18T10:10:36;4.70;;;2.30;;
11303;SDS011;5707;49.588;12.148;2023-09-18T10:13:14;3.85;;;2.50;;
11303;SDS011;5707;49.588;12.148;2023-09-18T10:15:40;4.85;;;2.42;;
11303;SDS011;5707;49.588;12.148;2023-09-18T10:18:19;3.60;;;2.42;;
11303;SDS011;5707;49.588;12.148;2023-09-18T10:20:56;2.58;;;2.38;;
11303;SDS011;5707;49.588;12.148;2023-09-18T10:26:14;4.97;;;2.63;;
11303;SDS011;5707;49.588;12.148;2023-09-18T10:28:45;6.93;;;2.50;;
11303;SDS011;5707;49.588;12.148;2023-09-18T10:31:13;4.43;;;2.95;;
11303;SDS011;5707;49.588;12.148;2023-09-18T10:33:40;5.88;;;2.67;;
11303;SDS011;5707;49.588;12.148;2023-09-18T10:36:06;3.65;;;2.58;;
11303;SDS011;5707;49.588;12.148;2023-09-18T10:38:34;7.25;;;2.55;;
11303;SDS011;5707;49.588;12.148;2023-09-18T10:41:03;4.63;;;2.20;;
11303;SDS011;5707;49.588;12.148;2023-09-18T10:43:30;6.32;;;2.20;;
11303;SDS011;5707;49.588;12.148;2023-09-18T10:45:55;6.70;;;2.20;;
11303;SDS011;5707;49.588;12.148;2023-09-18T10:48:21;5.38;;;1.77;;
11303;SDS011;5707;49.588;12.148;2023-09-18T10:50:49;6.07;;;2.03;;
11303;SDS011;5707;49.588;12.148;2023-09-18T10:53:15;4.18;;;2.20;;
11303;SDS011;5707;49.588;12.148;2023-09-18T10:55:45;4.22;;;2.25;;
11303;SDS011;5707;49.588;12.148;2023-09-18T10:58:10;3.50;;;2.28;;
11303;SDS011;5707;49.588;12.148;2023-09-18T11:00:37;5.80;;;1.73;;
11303;SDS011;5707;49.588;12.148;2023-09-18T11:03:15;4.47;;;1.60;;
11303;SDS011;5707;49.588;12.148;2023-09-18T11:05:43;7.05;;;1.60;;
11303;SDS011;5707;49.588;12.148;2023-09-18T11:08:25;2.97;;;1.80;;
11303;SDS011;5707;49.588;12.148;2023-09-18T11:10:56;3.78;;;1.85;;
11303;SDS011;5707;49.588;12.148;2023-09-18T11:13:34;4.63;;;2.10;;
11303;SDS011;5707;49.588;12.148;2023-09-18T11:16:43;4.60;;;2.23;;
11303;SDS011;5707;49.588;12.148;2023-09-18T11:21:28;4.43;;;1.90;;
11303;SDS011;5707;49.588;12.148;2023-09-18T11:24:01;6.15;;;2.15;;
11303;SDS011;5707;49.588;12.148;2023-09-18T11:26:35;4.10;;;1.88;;
11303;SDS011;5707;49.588;12.148;2023-09-18T11:34:11;3.42;;;1.85;;
11303;SDS011;5707;49.588;12.148;2023-09-18T11:36:38;5.38;;;2.22;;
11303;SDS011;5707;49.588;12.148;2023-09-18T11:39:03;5.30;;;2.13;;
11303;SDS011;5707;49.588;12.148;2023-09-18T11:41:30;4.65;;;2.63;;
11303;SDS011;5707;49.588;12.148;2023-09-18T11:46:35;3.60;;;2.28;;
11303;SDS011;5707;49.588;12.148;2023-09-18T11:49:05;8.02;;;2.28;;
11303;SDS011;5707;49.588;12.148;2023-09-18T11:51:32;3.67;;;2.00;;
11303;SDS011;5707;49.588;12.148;2023-09-18T11:53:59;3.58;;;1.80;;
11303;SDS011;5707;49.588;12.148;2023-09-18T11:56:28;2.63;;;1.52;;
11303;SDS011;5707;49.588;12.148;2023-09-18T11:58:54;3.72;;;2.10;;
11303;SDS011;5707;49.588;12.148;2023-09-18T12:01:20;4.93;;;1.67;;
11303;SDS011;5707;49.588;12.148;2023-09-18T12:03:53;3.55;;;2.20;;
11303;SDS011;5707;49.588;12.148;2023-09-18T12:06:19;2.40;;;1.58;;
11303;SDS011;5707;49.588;12.148;2023-09-18T12:08:46;5.20;;;1.48;;
11303;SDS011;5707;49.588;12.148;2023-09-18T12:11:13;3.75;;;1.52;;
11303;SDS011;5707;49.588;12.148;2023-09-18T12:13:42;2.88;;;1.50;;
11303;SDS011;5707;49.588;12.148;2023-09-18T12:16:08;2.53;;;1.83;;
11303;SDS011;5707;49.588;12.148;2023-09-18T12:18:34;5.28;;;1.70;;
11303;SDS011;5707;49.588;12.148;2023-09-18T12:21:05;3.38;;;1.75;;
11303;SDS011;5707;49.588;12.148;2023-09-18T12:23:40;3.25;;;1.55;;
11303;SDS011;5707;49.588;12.148;2023-09-18T12:26:10;7.30;;;1.75;;
11303;SDS011;5707;49.588;12.148;2023-09-18T12:28:38;5.32;;;1.77;;
11303;SDS011;5707;49.588;12.148;2023-09-18T12:31:04;3.25;;;1.90;;
11303;SDS011;5707;49.588;12.148;2023-09-18T12:33:33;5.65;;;1.60;;
11303;SDS011;5707;49.588;12.148;2023-09-18T12:36:00;5.57;;;1.65;;
11303;SDS011;5707;49.588;12.148;2023-09-18T12:38:26;5.93;;;1.70;;
11303;SDS011;5707;49.588;12.148;2023-09-18T12:40:53;2.38;;;1.50;;
11303;SDS011;5707;49.588;12.148;2023-09-18T12:43:20;3.03;;;1.58;;
11303;SDS011;5707;49.588;12.148;2023-09-18T12:45:50;2.13;;;1.50;;
11303;SDS011;5707;49.588;12.148;2023-09-18T12:48:17;1.90;;;1.60;;
11303;SDS011;5707;49.588;12.148;2023-09-18T12:50:43;3.50;;;1.60;;
11303;SDS011;5707;49.588;12.148;2023-09-18T12:53:09;2.80;;;1.80;;
11303;SDS011;5707;49.588;12.148;2023-09-18T12:55:37;3.58;;;1.80;;
11303;SDS011;5707;49.588;12.148;2023-09-18T12:58:03;4.15;;;1.60;;
11303;SDS011;5707;49.588;12.148;2023-09-18T13:00:34;7.15;;;2.40;;
11303;SDS011;5707;49.588;12.148;2023-09-18T13:03:00;4.18;;;2.05;;
11303;SDS011;5707;49.588;12.148;2023-09-18T13:05:29;6.55;;;2.35;;
11303;SDS011;5707;49.588;12.148;2023-09-18T13:08:00;3.42;;;1.60;;
11303;SDS011;5707;49.588;12.148;2023-09-18T13:10:46;3.60;;;2.15;;
11303;SDS011;5707;49.588;12.148;2023-09-18T13:13:16;4.38;;;2.17;;
11303;SDS011;5707;49.588;12.148;2023-09-18T13:15:46;3.80;;;2.40;;
11303;SDS011;5707;49.588;12.148;2023-09-18T13:18:13;6.15;;;1.98;;
11303;SDS011;5707;49.588;12.148;2023-09-18T13:20:41;2.70;;;1.88;;
11303;SDS011;5707;49.588;12.148;2023-09-18T13:23:07;5.22;;;1.55;;
11303;SDS011;5707;49.588;12.148;2023-09-18T13:25:37;4.25;;;1.80;;
11303;SDS011;5707;49.588;12.148;2023-09-18T13:28:06;5.13;;;1.52;;
11303;SDS011;5707;49.588;12.148;2023-09-18T13:30:33;4.05;;;1.30;;
11303;SDS011;5707;49.588;12.148;2023-09-18T13:33:05;3.80;;;2.00;;
11303;SDS011;5707;49.588;12.148;2023-09-18T13:35:32;5.07;;;1.60;;
11303;SDS011;5707;49.588;12.148;2023-09-18T13:37:59;2.92;;;1.55;;
11303;SDS011;5707;49.588;12.148;2023-09-18T13:40:24;3.38;;;1.20;;
11303;SDS011;5707;49.588;12.148;2023-09-18T13:42:50;2.78;;;1.30;;
11303;SDS011;5707;49.588;12.148;2023-09-18T13:45:16;2.67;;;1.65;;
11303;SDS011;5707;49.588;12.148;2023-09-18T13:47:42;4.65;;;1.67;;
11303;SDS011;5707;49.588;12.148;2023-09-18T13:50:07;2.05;;;1.50;;
11303;SDS011;5707;49.588;12.148;2023-09-18T13:52:34;4.07;;;1.50;;
11303;SDS011;5707;49.588;12.148;2023-09-18T13:55:01;5.40;;;1.42;;
11303;SDS011;5707;49.588;12.148;2023-09-18T13:57:30;2.42;;;1.55;;
11303;SDS011;5707;49.588;12.148;2023-09-18T13:59:56;2.60;;;1.17;;
11303;SDS011;5707;49.588;12.148;2023-09-18T14:02:22;4.65;;;1.10;;
11303;SDS011;5707;49.588;12.148;2023-09-18T14:04:52;3.35;;;1.00;;
11303;SDS011;5707;49.588;12.148;2023-09-18T14:07:18;5.47;;;1.15;;
11303;SDS011;5707;49.588;12.148;2023-09-18T14:09:43;4.15;;;1.17;;
11303;SDS011;5707;49.588;12.148;2023-09-18T14:12:11;3.00;;;0.90;;
11303;SDS011;5707;49.588;12.148;2023-09-18T14:14:37;2.95;;;1.05;;
11303;SDS011;5707;49.588;12.148;2023-09-18T14:17:03;3.75;;;1.17;;
11303;SDS011;5707;49.588;12.148;2023-09-18T14:19:29;5.07;;;1.33;;
11303;SDS011;5707;49.588;12.148;2023-09-18T14:21:55;6.97;;;1.58;;
11303;SDS011;5707;49.588;12.148;2023-09-18T14:24:21;3.47;;;1.30;;
11303;SDS011;5707;49.588;12.148;2023-09-18T14:26:50;3.13;;;1.42;;
11303;SDS011;5707;49.588;12.148;2023-09-18T14:29:16;2.47;;;1.00;;
11303;SDS011;5707;49.588;12.148;2023-09-18T14:31:42;4.88;;;1.40;;
11303;SDS011;5707;49.588;12.148;2023-09-18T14:34:08;4.35;;;1.20;;
11303;SDS011;5707;49.588;12.148;2023-09-18T14:36:35;3.22;;;1.60;;
11303;SDS011;5707;49.588;12.148;2023-09-18T14:39:00;3.28;;;1.58;;
11303;SDS011;5707;49.588;12.148;2023-09-18T14:41:27;3.53;;;1.70;;
11303;SDS011;5707;49.588;12.148;2023-09-18T14:43:53;2.08;;;1.48;;
11303;SDS011;5707;49.588;12.148;2023-09-18T14:46:19;4.13;;;1.30;;
11303;SDS011;5707;49.588;12.148;2023-09-18T14:48:45;2.45;;;1.10;;
11303;SDS011;5707;49.588;12.148;2023-09-18T14:51:11;2.35;;;1.33;;
11303;SDS011;5707;49.588;12.148;2023-09-18T14:53:37;2.38;;;1.25;;
11303;SDS011;5707;49.588;12.148;2023-09-18T14:56:02;3.03;;;1.25;;
11303;SDS011;5707;49.588;12.148;2023-09-18T14:58:29;2.25;;;1.20;;
11303;SDS011;5707;49.588;12.148;2023-09-18T15:00:56;2.50;;;1.00;;
11303;SDS011;5707;49.588;12.148;2023-09-18T15:03:22;2.78;;;1.30;;
11303;SDS011;5707;49.588;12.148;2023-09-18T15:05:49;4.13;;;1.13;;
11303;SDS011;5707;49.588;12.148;2023-09-18T15:08:16;5.68;;;1.40;;